sensor_id;sensor_type;location;lat;lon;timestamp;pressure;altitude;pressure_sealevel;temperature;humidity
62025;BME280;47978;49.118;12.146;2022-07-19T00:02:19;98007.75;;;16.00;63.08
62025;BME280;47978;49.118;12.146;2022-07-19T00:04:46;98006.56;;;16.10;62.84
62025;BME280;47978;49.118;12.146;2022-07-19T00:07:12;98007.88;;;16.12;62.51
62025;BME280;47978;49.118;12.146;2022-07-19T00:09:39;98008.53;;;16.09;62.39
62025;BME280;47978;49.118;12.146;2022-07-19T00:12:06;98005.06;;;16.21;62.15
62025;BME280;47978;49.118;12.146;2022-07-19T00:14:34;98000.50;;;16.25;62.23
62025;BME280;47978;49.118;12.146;2022-07-19T00:17:01;98005.44;;;16.11;63.38
62025;BME280;47978;49.118;12.146;2022-07-19T00:19:28;98008.22;;;16.02;63.69
62025;BME280;47978;49.118;12.146;2022-07-19T00:21:54;98001.31;;;15.82;64.58
62025;BME280;47978;49.118;12.146;2022-07-19T00:24:21;98003.94;;;15.79;65.15
62025;BME280;47978;49.118;12.146;2022-07-19T00:26:48;97997.25;;;15.71;65.18
62025;BME280;47978;49.118;12.146;2022-07-19T00:29:14;97999.53;;;15.69;65.44
62025;BME280;47978;49.118;12.146;2022-07-19T00:31:42;98004.91;;;15.65;65.44
62025;BME280;47978;49.118;12.146;2022-07-19T00:34:09;97999.81;;;15.59;65.54
62025;BME280;47978;49.118;12.146;2022-07-19T00:36:36;98000.63;;;15.59;65.66
62025;BME280;47978;49.118;12.146;2022-07-19T00:39:02;97999.66;;;15.55;65.63
62025;BME280;47978;49.118;12.146;2022-07-19T00:41:29;98001.78;;;15.49;66.01
62025;BME280;47978;49.118;12.146;2022-07-19T00:43:56;97991.78;;;15.40;66.51
62025;BME280;47978;49.118;12.146;2022-07-19T00:46:22;98001.75;;;15.32;66.93
62025;BME280;47978;49.118;12.146;2022-07-19T00:48:50;98005.50;;;15.36;65.86
62025;BME280;47978;49.118;12.146;2022-07-19T00:51:18;97999.66;;;15.46;65.51
62025;BME280;47978;49.118;12.146;2022-07-19T00:53:45;97999.97;;;15.53;65.54
62025;BME280;47978;49.118;12.146;2022-07-19T00:56:13;97996.88;;;15.55;65.10
62025;BME280;47978;49.118;12.146;2022-07-19T00:58:40;98006.41;;;15.63;65.09
62025;BME280;47978;49.118;12.146;2022-07-19T01:01:08;98000.97;;;15.58;65.02
62025;BME280;47978;49.118;12.146;2022-07-19T01:03:37;98006.41;;;15.63;64.72
62025;BME280;47978;49.118;12.146;2022-07-19T01:06:06;97999.34;;;15.65;64.41
62025;BME280;47978;49.118;12.146;2022-07-19T01:08:34;98000.34;;;15.69;64.67
62025;BME280;47978;49.118;12.146;2022-07-19T01:11:02;98005.94;;;15.69;64.53
62025;BME280;47978;49.118;12.146;2022-07-19T01:13:29;98001.78;;;15.49;65.24
62025;BME280;47978;49.118;12.146;2022-07-19T01:15:56;98003.38;;;15.24;66.36
62025;BME280;47978;49.118;12.146;2022-07-19T01:18:23;98001.91;;;15.27;66.00
62025;BME280;47978;49.118;12.146;2022-07-19T01:20:50;97998.13;;;15.23;66.00
62025;BME280;47978;49.118;12.146;2022-07-19T01:23:18;98000.22;;;15.09;66.73
62025;BME280;47978;49.118;12.146;2022-07-19T01:25:45;97993.66;;;15.04;66.74
62025;BME280;47978;49.118;12.146;2022-07-19T01:28:11;97993.28;;;14.89;67.43
62025;BME280;47978;49.118;12.146;2022-07-19T01:30:38;98001.94;;;14.87;67.34
62025;BME280;47978;49.118;12.146;2022-07-19T01:33:05;98000.31;;;14.86;67.33
62025;BME280;47978;49.118;12.146;2022-07-19T01:35:31;98004.03;;;14.81;67.74
62025;BME280;47978;49.118;12.146;2022-07-19T01:37:58;98012.75;;;14.80;67.54
62025;BME280;47978;49.118;12.146;2022-07-19T01:40:26;98009.44;;;14.78;67.90
62025;BME280;47978;49.118;12.146;2022-07-19T01:42:53;98004.16;;;14.68;68.50
62025;BME280;47978;49.118;12.146;2022-07-19T01:45:20;98001.84;;;14.61;68.67
62025;BME280;47978;49.118;12.146;2022-07-19T01:47:47;98007.03;;;14.54;68.83
62025;BME280;47978;49.118;12.146;2022-07-19T01:50:16;98001.97;;;14.56;68.55
62025;BME280;47978;49.118;12.146;2022-07-19T01:52:43;97997.72;;;14.58;68.12
62025;BME280;47978;49.118;12.146;2022-07-19T01:55:16;98000.84;;;14.66;67.66
62025;BME280;47978;49.118;12.146;2022-07-19T01:57:44;98004.00;;;14.73;67.42
62025;BME280;47978;49.118;12.146;2022-07-19T02:00:11;98002.06;;;14.82;66.81
62025;BME280;47978;49.118;12.146;2022-07-19T02:02:38;98000.13;;;14.91;66.62
62025;BME280;47978;49.118;12.146;2022-07-19T02:05:06;98005.00;;;14.77;67.55
62025;BME280;47978;49.118;12.146;2022-07-19T02:07:36;98009.59;;;14.73;67.43
62025;BME280;47978;49.118;12.146;2022-07-19T02:10:03;98003.84;;;14.69;67.31
62025;BME280;47978;49.118;12.146;2022-07-19T02:12:30;98004.44;;;14.57;67.97
62025;BME280;47978;49.118;12.146;2022-07-19T02:14:58;98011.22;;;14.51;68.23
62025;BME280;47978;49.118;12.146;2022-07-19T02:17:24;98010.97;;;14.53;68.24
62025;BME280;47978;49.118;12.146;2022-07-19T02:19:51;98007.56;;;14.65;67.77
62025;BME280;47978;49.118;12.146;2022-07-19T02:22:18;98007.97;;;14.49;68.29
62025;BME280;47978;49.118;12.146;2022-07-19T02:24:44;98010.25;;;14.47;68.47
62025;BME280;47978;49.118;12.146;2022-07-19T02:27:11;98015.81;;;14.47;68.34
62025;BME280;47978;49.118;12.146;2022-07-19T02:29:38;98014.13;;;14.37;68.64
62025;BME280;47978;49.118;12.146;2022-07-19T02:32:07;98016.00;;;14.28;68.81
62025;BME280;47978;49.118;12.146;2022-07-19T02:34:34;98014.50;;;14.22;69.33
62025;BME280;47978;49.118;12.146;2022-07-19T02:37:01;98013.50;;;14.18;69.25
62025;BME280;47978;49.118;12.146;2022-07-19T02:39:27;98018.69;;;14.11;69.34
62025;BME280;47978;49.118;12.146;2022-07-19T02:41:54;98015.53;;;14.04;69.67
62025;BME280;47978;49.118;12.146;2022-07-19T02:44:21;98013.63;;;13.90;70.20
62025;BME280;47978;49.118;12.146;2022-07-19T02:46:48;98013.25;;;13.83;70.40
62025;BME280;47978;49.118;12.146;2022-07-19T02:49:16;98012.41;;;13.83;70.48
62025;BME280;47978;49.118;12.146;2022-07-19T02:51:42;98011.53;;;13.73;70.96
62025;BME280;47978;49.118;12.146;2022-07-19T02:54:09;98017.72;;;13.70;71.12
62025;BME280;47978;49.118;12.146;2022-07-19T02:56:35;98009.19;;;13.67;71.15
62025;BME280;47978;49.118;12.146;2022-07-19T02:59:02;98014.34;;;13.60;71.29
62025;BME280;47978;49.118;12.146;2022-07-19T03:01:29;98008.28;;;13.58;71.55
62025;BME280;47978;49.118;12.146;2022-07-19T03:03:55;98007.44;;;13.57;71.84
62025;BME280;47978;49.118;12.146;2022-07-19T03:06:23;98011.19;;;13.53;71.96
62025;BME280;47978;49.118;12.146;2022-07-19T03:08:50;98010.66;;;13.50;71.76
62025;BME280;47978;49.118;12.146;2022-07-19T03:11:17;98025.44;;;13.60;71.43
62025;BME280;47978;49.118;12.146;2022-07-19T03:13:43;98017.72;;;13.70;71.00
62025;BME280;47978;49.118;12.146;2022-07-19T03:16:10;98016.44;;;13.77;70.65
62025;BME280;47978;49.118;12.146;2022-07-19T03:18:37;98015.19;;;13.83;70.31
62025;BME280;47978;49.118;12.146;2022-07-19T03:21:04;98019.16;;;13.68;70.94
62025;BME280;47978;49.118;12.146;2022-07-19T03:23:32;98016.06;;;13.69;70.84
62025;BME280;47978;49.118;12.146;2022-07-19T03:26:00;98014.81;;;13.76;70.57
62025;BME280;47978;49.118;12.146;2022-07-19T03:28:27;98013.94;;;13.66;71.01
62025;BME280;47978;49.118;12.146;2022-07-19T03:30:53;98016.97;;;13.79;70.63
62025;BME280;47978;49.118;12.146;2022-07-19T03:33:20;98019.00;;;13.87;70.25
62025;BME280;47978;49.118;12.146;2022-07-19T03:35:47;98027.56;;;13.77;70.87
62025;BME280;47978;49.118;12.146;2022-07-19T03:38:14;98019.63;;;13.84;70.39
62025;BME280;47978;49.118;12.146;2022-07-19T03:40:42;98021.91;;;13.82;70.28
62025;BME280;47978;49.118;12.146;2022-07-19T03:43:09;98018.59;;;13.80;70.41
62025;BME280;47978;49.118;12.146;2022-07-19T03:45:35;98025.53;;;13.68;70.94
62025;BME280;47978;49.118;12.146;2022-07-19T03:48:02;98013.53;;;13.59;71.38
62025;BME280;47978;49.118;12.146;2022-07-19T03:50:29;98025.25;;;13.56;71.51
62025;BME280;47978;49.118;12.146;2022-07-19T03:52:55;98025.34;;;13.65;71.20
62025;BME280;47978;49.118;12.146;2022-07-19T03:55:22;98028.53;;;13.72;70.76
62025;BME280;47978;49.118;12.146;2022-07-19T03:57:50;98037.50;;;13.69;71.17
62025;BME280;47978;49.118;12.146;2022-07-19T04:00:17;98029.38;;;13.59;71.82
62025;BME280;47978;49.118;12.146;2022-07-19T04:02:43;98028.16;;;13.51;72.25
62025;BME280;47978;49.118;12.146;2022-07-19T04:05:10;98026.63;;;13.45;72.09
62025;BME280;47978;49.118;12.146;2022-07-19T04:07:36;98036.50;;;13.37;72.49
62025;BME280;47978;49.118;12.146;2022-07-19T04:10:03;98032.69;;;13.47;72.18
62025;BME280;47978;49.118;12.146;2022-07-19T04:12:30;98040.78;;;13.57;71.69
62025;BME280;47978;49.118;12.146;2022-07-19T04:14:58;98042.91;;;13.74;70.72
62025;BME280;47978;49.118;12.146;2022-07-19T04:17:25;98042.28;;;13.77;70.93
62025;BME280;47978;49.118;12.146;2022-07-19T04:19:51;98039.19;;;13.79;70.85
62025;BME280;47978;49.118;12.146;2022-07-19T04:22:18;98040.56;;;13.67;71.21
62025;BME280;47978;49.118;12.146;2022-07-19T04:24:44;98044.53;;;13.53;72.18
62025;BME280;47978;49.118;12.146;2022-07-19T04:27:11;98050.38;;;13.51;72.63
62025;BME280;47978;49.118;12.146;2022-07-19T04:29:38;98047.63;;;13.37;73.19
62025;BME280;47978;49.118;12.146;2022-07-19T04:32:06;98054.63;;;13.35;74.27
62025;BME280;47978;49.118;12.146;2022-07-19T04:34:32;98051.16;;;13.29;74.52
62025;BME280;47978;49.118;12.146;2022-07-19T04:36:59;98054.13;;;13.33;74.15
62025;BME280;47978;49.118;12.146;2022-07-19T04:39:26;98055.75;;;13.47;73.40
62025;BME280;47978;49.118;12.146;2022-07-19T04:41:52;98054.69;;;13.57;72.63
62025;BME280;47978;49.118;12.146;2022-07-19T04:44:19;98056.34;;;13.58;72.49
62025;BME280;47978;49.118;12.146;2022-07-19T04:46:45;98062.91;;;13.62;72.53
62025;BME280;47978;49.118;12.146;2022-07-19T04:49:14;98054.25;;;13.78;71.94
62025;BME280;47978;49.118;12.146;2022-07-19T04:51:41;98048.25;;;13.84;72.04
62025;BME280;47978;49.118;12.146;2022-07-19T04:54:07;98049.47;;;13.92;71.80
62025;BME280;47978;49.118;12.146;2022-07-19T04:56:34;98054.66;;;14.07;71.37
62025;BME280;47978;49.118;12.146;2022-07-19T04:59:00;98054.53;;;14.12;71.28
62025;BME280;47978;49.118;12.146;2022-07-19T05:01:27;98049.19;;;14.02;72.08
62025;BME280;47978;49.118;12.146;2022-07-19T05:03:54;98051.00;;;14.21;71.16
62025;BME280;47978;49.118;12.146;2022-07-19T05:06:22;98051.00;;;14.21;71.81
62025;BME280;47978;49.118;12.146;2022-07-19T05:08:48;98045.09;;;14.45;71.49
62025;BME280;47978;49.118;12.146;2022-07-19T05:11:15;98044.22;;;14.89;70.83
62025;BME280;47978;49.118;12.146;2022-07-19T05:13:41;98045.53;;;15.32;68.57
62025;BME280;47978;49.118;12.146;2022-07-19T05:16:08;98045.78;;;15.70;67.13
62025;BME280;47978;49.118;12.146;2022-07-19T05:18:35;98038.03;;;15.67;66.96
62025;BME280;47978;49.118;12.146;2022-07-19T05:21:02;98036.44;;;15.92;66.55
62025;BME280;47978;49.118;12.146;2022-07-19T05:23:30;98037.41;;;16.13;66.30
62025;BME280;47978;49.118;12.146;2022-07-19T05:25:56;98045.28;;;16.46;65.51
62025;BME280;47978;49.118;12.146;2022-07-19T05:28:23;98044.47;;;17.01;64.66
62025;BME280;47978;49.118;12.146;2022-07-19T05:30:49;98035.78;;;17.62;61.94
62025;BME280;47978;49.118;12.146;2022-07-19T05:33:16;98030.16;;;17.92;60.95
62025;BME280;47978;49.118;12.146;2022-07-19T05:35:43;98026.06;;;18.43;59.75
62025;BME280;47978;49.118;12.146;2022-07-19T05:38:09;98020.81;;;18.75;59.30
62025;BME280;47978;49.118;12.146;2022-07-19T05:40:37;98025.59;;;18.75;59.99
62025;BME280;47978;49.118;12.146;2022-07-19T05:43:04;98018.84;;;18.88;58.85
62025;BME280;47978;49.118;12.146;2022-07-19T05:45:30;98022.63;;;18.26;60.37
62025;BME280;47978;49.118;12.146;2022-07-19T05:47:57;98018.19;;;18.25;60.86
62025;BME280;47978;49.118;12.146;2022-07-19T05:50:23;98016.63;;;18.48;60.45
62025;BME280;47978;49.118;12.146;2022-07-19T05:52:50;98012.63;;;18.70;59.74
62025;BME280;47978;49.118;12.146;2022-07-19T05:55:16;98012.47;;;18.66;58.57
62025;BME280;47978;49.118;12.146;2022-07-19T05:57:44;98012.47;;;19.37;56.95
62025;BME280;47978;49.118;12.146;2022-07-19T06:00:11;98014.53;;;19.52;55.50
62025;BME280;47978;49.118;12.146;2022-07-19T06:02:38;98016.72;;;19.95;55.97
62025;BME280;47978;49.118;12.146;2022-07-19T06:05:05;98025.53;;;20.50;53.91
62025;BME280;47978;49.118;12.146;2022-07-19T06:07:32;98023.75;;;20.58;53.49
62025;BME280;47978;49.118;12.146;2022-07-19T06:09:58;98015.28;;;21.02;52.70
62025;BME280;47978;49.118;12.146;2022-07-19T06:12:25;98030.78;;;21.27;52.01
62025;BME280;47978;49.118;12.146;2022-07-19T06:14:53;98029.47;;;20.77;52.44
62025;BME280;47978;49.118;12.146;2022-07-19T06:17:20;98028.69;;;21.08;51.26
62025;BME280;47978;49.118;12.146;2022-07-19T06:19:50;98034.97;;;21.02;51.39
62025;BME280;47978;49.118;12.146;2022-07-19T06:22:16;98031.81;;;21.03;51.50
62025;BME280;47978;49.118;12.146;2022-07-19T06:24:43;98022.72;;;21.58;51.21
62025;BME280;47978;49.118;12.146;2022-07-19T06:27:10;98020.47;;;21.83;50.35
62025;BME280;47978;49.118;12.146;2022-07-19T06:29:36;98022.25;;;22.45;47.53
62025;BME280;47978;49.118;12.146;2022-07-19T06:32:04;98015.97;;;23.44;46.34
62025;BME280;47978;49.118;12.146;2022-07-19T06:34:31;98002.91;;;24.16;44.41
62025;BME280;47978;49.118;12.146;2022-07-19T06:36:58;98011.00;;;24.14;43.54
62025;BME280;47978;49.118;12.146;2022-07-19T06:39:24;98017.09;;;23.63;45.76
62025;BME280;47978;49.118;12.146;2022-07-19T06:41:51;98011.09;;;23.68;44.46
62025;BME280;47978;49.118;12.146;2022-07-19T06:44:17;98008.94;;;24.11;44.04
62025;BME280;47978;49.118;12.146;2022-07-19T06:46:44;98009.84;;;24.49;42.77
62025;BME280;47978;49.118;12.146;2022-07-19T06:49:20;98010.09;;;24.40;41.69
62025;BME280;47978;49.118;12.146;2022-07-19T06:51:47;98008.00;;;24.67;41.48
62025;BME280;47978;49.118;12.146;2022-07-19T06:54:14;98007.59;;;25.06;40.71
62025;BME280;47978;49.118;12.146;2022-07-19T06:56:40;98005.59;;;25.10;40.72
62025;BME280;47978;49.118;12.146;2022-07-19T06:59:07;98010.00;;;25.45;40.41
62025;BME280;47978;49.118;12.146;2022-07-19T07:01:33;97998.69;;;25.48;39.92
62025;BME280;47978;49.118;12.146;2022-07-19T07:04:00;98005.91;;;25.94;39.18
62025;BME280;47978;49.118;12.146;2022-07-19T07:06:28;98005.34;;;25.77;39.30
62025;BME280;47978;49.118;12.146;2022-07-19T07:08:55;98005.16;;;25.45;39.66
62025;BME280;47978;49.118;12.146;2022-07-19T07:11:21;98011.94;;;25.89;39.13
62025;BME280;47978;49.118;12.146;2022-07-19T07:13:48;98001.63;;;26.32;37.24
62025;BME280;47978;49.118;12.146;2022-07-19T07:16:14;97993.53;;;26.34;37.58
62025;BME280;47978;49.118;12.146;2022-07-19T07:18:41;98002.78;;;26.20;37.02
62025;BME280;47978;49.118;12.146;2022-07-19T07:21:08;97990.56;;;26.06;37.73
62025;BME280;47978;49.118;12.146;2022-07-19T07:23:36;97995.91;;;26.18;38.27
62025;BME280;47978;49.118;12.146;2022-07-19T07:26:02;97996.00;;;25.70;39.04
62025;BME280;47978;49.118;12.146;2022-07-19T07:28:30;97997.34;;;25.83;38.48
62025;BME280;47978;49.118;12.146;2022-07-19T07:30:56;97989.28;;;25.92;38.93
62025;BME280;47978;49.118;12.146;2022-07-19T07:33:23;97988.28;;;26.33;38.52
62025;BME280;47978;49.118;12.146;2022-07-19T07:35:50;97984.91;;;26.02;38.14
62025;BME280;47978;49.118;12.146;2022-07-19T07:38:16;97983.75;;;26.14;37.89
62025;BME280;47978;49.118;12.146;2022-07-19T07:40:44;97976.03;;;26.07;37.72
62025;BME280;47978;49.118;12.146;2022-07-19T07:43:11;97984.13;;;26.12;38.56
62025;BME280;47978;49.118;12.146;2022-07-19T07:45:37;97985.78;;;26.24;38.35
62025;BME280;47978;49.118;12.146;2022-07-19T07:48:04;97970.47;;;26.46;37.94
62025;BME280;47978;49.118;12.146;2022-07-19T07:50:31;97969.31;;;26.51;37.77
62025;BME280;47978;49.118;12.146;2022-07-19T07:52:57;97964.88;;;26.57;36.93
62025;BME280;47978;49.118;12.146;2022-07-19T07:55:24;97971.00;;;26.77;37.40
62025;BME280;47978;49.118;12.146;2022-07-19T07:57:56;97969.78;;;26.67;38.01
62025;BME280;47978;49.118;12.146;2022-07-19T08:00:23;97968.16;;;26.70;36.79
62025;BME280;47978;49.118;12.146;2022-07-19T08:02:50;97967.78;;;26.93;36.82
62025;BME280;47978;49.118;12.146;2022-07-19T08:05:20;97970.22;;;27.05;36.33
62025;BME280;47978;49.118;12.146;2022-07-19T08:07:46;97969.88;;;27.35;35.34
62025;BME280;47978;49.118;12.146;2022-07-19T08:10:18;97963.31;;;27.71;34.65
62025;BME280;47978;49.118;12.146;2022-07-19T08:12:45;97958.88;;;27.70;34.33
62025;BME280;47978;49.118;12.146;2022-07-19T08:15:13;97958.47;;;27.46;35.39
62025;BME280;47978;49.118;12.146;2022-07-19T08:17:39;97958.47;;;27.53;35.09
62025;BME280;47978;49.118;12.146;2022-07-19T08:20:07;97953.56;;;27.86;35.36
62025;BME280;47978;49.118;12.146;2022-07-19T08:22:34;97942.41;;;28.38;33.98
62025;BME280;47978;49.118;12.146;2022-07-19T08:25:01;97948.53;;;28.26;33.22
62025;BME280;47978;49.118;12.146;2022-07-19T08:27:27;97944.75;;;28.61;32.49
62025;BME280;47978;49.118;12.146;2022-07-19T08:29:54;97944.06;;;28.29;32.38
62025;BME280;47978;49.118;12.146;2022-07-19T08:32:22;97941.69;;;28.16;33.13
62025;BME280;47978;49.118;12.146;2022-07-19T08:34:48;97945.38;;;28.06;33.34
62025;BME280;47978;49.118;12.146;2022-07-19T08:37:15;97941.28;;;28.18;33.50
62025;BME280;47978;49.118;12.146;2022-07-19T08:39:42;97935.59;;;28.18;32.99
62025;BME280;47978;49.118;12.146;2022-07-19T08:42:08;97937.00;;;28.62;32.97
62025;BME280;47978;49.118;12.146;2022-07-19T08:44:36;97930.41;;;28.76;29.62
62025;BME280;47978;49.118;12.146;2022-07-19T08:47:03;97931.84;;;29.02;28.74
62025;BME280;47978;49.118;12.146;2022-07-19T08:49:32;97928.44;;;29.25;28.91
62025;BME280;47978;49.118;12.146;2022-07-19T08:51:59;97923.94;;;29.27;29.21
62025;BME280;47978;49.118;12.146;2022-07-19T08:54:26;97917.56;;;29.54;30.43
62025;BME280;47978;49.118;12.146;2022-07-19T08:57:00;97924.34;;;29.71;27.95
62025;BME280;47978;49.118;12.146;2022-07-19T08:59:27;97920.00;;;29.55;28.33
62025;BME280;47978;49.118;12.146;2022-07-19T09:01:53;97924.63;;;29.84;29.18
62025;BME280;47978;49.118;12.146;2022-07-19T09:04:21;97926.66;;;29.83;28.10
62025;BME280;47978;49.118;12.146;2022-07-19T09:06:50;97932.03;;;29.77;28.75
62025;BME280;47978;49.118;12.146;2022-07-19T09:09:19;97925.19;;;29.68;28.59
62025;BME280;47978;49.118;12.146;2022-07-19T09:11:47;97919.91;;;29.66;30.07
62025;BME280;47978;49.118;12.146;2022-07-19T09:14:15;97922.91;;;29.90;27.26
62025;BME280;47978;49.118;12.146;2022-07-19T09:16:54;97913.16;;;29.87;29.94
62025;BME280;47978;49.118;12.146;2022-07-19T09:19:21;97911.16;;;29.84;28.66
62025;BME280;47978;49.118;12.146;2022-07-19T09:21:57;97906.03;;;29.72;28.49
62025;BME280;47978;49.118;12.146;2022-07-19T09:24:25;97904.69;;;30.14;28.08
62025;BME280;47978;49.118;12.146;2022-07-19T09:27:03;97906.88;;;30.03;28.59
62025;BME280;47978;49.118;12.146;2022-07-19T09:29:31;97912.81;;;29.81;29.25
62025;BME280;47978;49.118;12.146;2022-07-19T09:32:00;97903.91;;;30.10;27.70
62025;BME280;47978;49.118;12.146;2022-07-19T09:34:27;97905.00;;;29.89;26.94
62025;BME280;47978;49.118;12.146;2022-07-19T09:37:09;97909.34;;;30.01;28.61
62025;BME280;47978;49.118;12.146;2022-07-19T09:39:35;97911.38;;;30.00;27.07
62025;BME280;47978;49.118;12.146;2022-07-19T09:42:02;97909.22;;;30.08;29.08
62025;BME280;47978;49.118;12.146;2022-07-19T09:44:29;97912.81;;;30.16;28.61
62025;BME280;47978;49.118;12.146;2022-07-19T09:46:55;97909.22;;;30.08;27.48
62025;BME280;47978;49.118;12.146;2022-07-19T09:49:22;97900.19;;;30.13;28.45
62025;BME280;47978;49.118;12.146;2022-07-19T09:51:50;97904.34;;;30.43;27.80
62025;BME280;47978;49.118;12.146;2022-07-19T09:54:20;97901.09;;;30.41;26.99
62025;BME280;47978;49.118;12.146;2022-07-19T09:56:48;97897.56;;;30.30;26.83
62025;BME280;47978;49.118;12.146;2022-07-19T09:59:15;97898.81;;;30.29;28.75
62025;BME280;47978;49.118;12.146;2022-07-19T10:01:43;97911.09;;;30.25;26.73
62025;BME280;47978;49.118;12.146;2022-07-19T10:04:11;97896.38;;;30.27;27.08
62025;BME280;47978;49.118;12.146;2022-07-19T10:06:40;97895.31;;;30.14;25.95
62025;BME280;47978;49.118;12.146;2022-07-19T10:09:08;97893.22;;;30.18;27.04
62025;BME280;47978;49.118;12.146;2022-07-19T10:14:17;97898.06;;;30.24;26.30
62025;BME280;47978;49.118;12.146;2022-07-19T10:16:51;97889.50;;;30.24;25.01
62025;BME280;47978;49.118;12.146;2022-07-19T10:19:28;97879.06;;;30.41;25.29
62025;BME280;47978;49.118;12.146;2022-07-19T10:21:57;97880.72;;;30.39;25.26
62025;BME280;47978;49.118;12.146;2022-07-19T10:24:44;97876.72;;;30.63;27.18
62025;BME280;47978;49.118;12.146;2022-07-19T10:27:12;97879.97;;;30.62;25.67
62025;BME280;47978;49.118;12.146;2022-07-19T10:29:40;97882.41;;;30.63;26.12
62025;BME280;47978;49.118;12.146;2022-07-19T10:32:08;97880.59;;;30.50;25.85
62025;BME280;47978;49.118;12.146;2022-07-19T10:34:35;97878.63;;;30.70;25.36
62025;BME280;47978;49.118;12.146;2022-07-19T10:37:02;97873.78;;;30.67;24.66
62025;BME280;47978;49.118;12.146;2022-07-19T10:39:30;97868.69;;;30.82;23.26
62025;BME280;47978;49.118;12.146;2022-07-19T10:42:13;97875.47;;;30.91;25.17
62025;BME280;47978;49.118;12.146;2022-07-19T10:45:09;97869.22;;;31.00;24.13
62025;BME280;47978;49.118;12.146;2022-07-19T10:48:02;97881.31;;;31.08;23.53
62025;BME280;47978;49.118;12.146;2022-07-19T10:50:54;97871.50;;;30.85;24.15
62025;BME280;47978;49.118;12.146;2022-07-19T10:56:40;97866.47;;;30.93;25.34
62025;BME280;47978;49.118;12.146;2022-07-19T10:59:33;97867.97;;;31.01;26.71
62025;BME280;47978;49.118;12.146;2022-07-19T11:02:01;97861.13;;;30.95;25.26
62025;BME280;47978;49.118;12.146;2022-07-19T11:04:48;97858.06;;;30.82;24.11
62025;BME280;47978;49.118;12.146;2022-07-19T11:07:18;97867.47;;;30.83;24.76
62025;BME280;47978;49.118;12.146;2022-07-19T11:09:47;97858.75;;;30.90;25.51
62025;BME280;47978;49.118;12.146;2022-07-19T11:12:22;97854.84;;;30.80;25.62
62025;BME280;47978;49.118;12.146;2022-07-19T11:14:49;97841.63;;;30.90;24.44
62025;BME280;47978;49.118;12.146;2022-07-19T11:17:37;97844.00;;;30.95;25.26
62025;BME280;47978;49.118;12.146;2022-07-19T11:20:07;97841.38;;;31.04;25.67
62025;BME280;47978;49.118;12.146;2022-07-19T11:22:36;97839.69;;;31.07;25.45
62025;BME280;47978;49.118;12.146;2022-07-19T11:25:04;97838.75;;;31.13;24.58
62025;BME280;47978;49.118;12.146;2022-07-19T11:27:32;97837.41;;;30.98;25.12
62025;BME280;47978;49.118;12.146;2022-07-19T11:30:01;97835.66;;;31.04;27.32
62025;BME280;47978;49.118;12.146;2022-07-19T11:32:28;97841.75;;;31.06;25.17
62025;BME280;47978;49.118;12.146;2022-07-19T11:34:58;97818.63;;;31.21;24.52
62025;BME280;47978;49.118;12.146;2022-07-19T11:37:26;97825.66;;;31.16;24.56
62025;BME280;47978;49.118;12.146;2022-07-19T11:39:54;97827.06;;;31.28;25.46
62025;BME280;47978;49.118;12.146;2022-07-19T11:42:33;97823.09;;;31.22;25.48
62025;BME280;47978;49.118;12.146;2022-07-19T11:45:22;97820.50;;;31.31;25.72
62025;BME280;47978;49.118;12.146;2022-07-19T11:47:50;97813.28;;;31.46;25.47
62025;BME280;47978;49.118;12.146;2022-07-19T11:50:20;97818.94;;;31.70;26.71
62025;BME280;47978;49.118;12.146;2022-07-19T11:52:49;97811.00;;;31.77;25.41
62025;BME280;47978;49.118;12.146;2022-07-19T11:55:17;97818.94;;;31.70;23.95
62025;BME280;47978;49.118;12.146;2022-07-19T11:57:45;97809.34;;;31.60;25.03
62025;BME280;47978;49.118;12.146;2022-07-19T12:00:12;97823.19;;;31.62;24.35
62025;BME280;47978;49.118;12.146;2022-07-19T12:02:59;97812.03;;;31.67;25.84
62025;BME280;47978;49.118;12.146;2022-07-19T12:05:27;97803.91;;;31.66;24.40
62025;BME280;47978;49.118;12.146;2022-07-19T12:07:58;97799.41;;;31.65;25.35
62025;BME280;47978;49.118;12.146;2022-07-19T12:10:35;97798.91;;;31.70;25.01
62025;BME280;47978;49.118;12.146;2022-07-19T12:13:03;97805.28;;;31.77;25.13
62025;BME280;47978;49.118;12.146;2022-07-19T12:15:43;97802.81;;;31.79;25.44
62025;BME280;47978;49.118;12.146;2022-07-19T12:18:10;97800.00;;;31.76;24.41
62025;BME280;47978;49.118;12.146;2022-07-19T12:20:38;97799.66;;;31.74;24.57
62025;BME280;47978;49.118;12.146;2022-07-19T12:23:16;97793.66;;;31.68;24.29
62025;BME280;47978;49.118;12.146;2022-07-19T12:25:42;97797.69;;;31.91;24.23
62025;BME280;47978;49.118;12.146;2022-07-19T12:28:09;97796.50;;;31.88;24.84
62025;BME280;47978;49.118;12.146;2022-07-19T12:30:36;97794.84;;;31.87;23.81
62025;BME280;47978;49.118;12.146;2022-07-19T12:33:09;97792.31;;;31.93;24.35
62025;BME280;47978;49.118;12.146;2022-07-19T12:35:47;97781.09;;;31.82;24.79
62025;BME280;47978;49.118;12.146;2022-07-19T12:38:14;97783.72;;;31.93;24.30
62025;BME280;47978;49.118;12.146;2022-07-19T12:40:42;97778.28;;;31.98;24.07
62025;BME280;47978;49.118;12.146;2022-07-19T12:43:10;97780.34;;;31.98;23.57
62025;BME280;47978;49.118;12.146;2022-07-19T12:45:39;97765.81;;;31.89;23.21
62025;BME280;47978;49.118;12.146;2022-07-19T12:48:07;97771.09;;;31.90;23.10
62025;BME280;47978;49.118;12.146;2022-07-19T12:50:35;97770.50;;;31.99;23.66
62025;BME280;47978;49.118;12.146;2022-07-19T12:53:06;97773.59;;;32.24;25.60
62025;BME280;47978;49.118;12.146;2022-07-19T12:55:34;97774.44;;;32.41;24.12
62025;BME280;47978;49.118;12.146;2022-07-19T12:58:02;97770.22;;;32.30;21.93
62025;BME280;47978;49.118;12.146;2022-07-19T13:00:30;97763.53;;;32.36;22.75
62025;BME280;47978;49.118;12.146;2022-07-19T13:02:58;97764.09;;;32.47;24.03